sensor_id;sensor_type;location;lat;lon;timestamp;P1;durP1;ratioP1;P2;durP2;ratioP2
15340;SDS011;7770;52.158;5.372;2022-11-11T00:01:45;22.10;;;19.33;;
15340;SDS011;7770;52.158;5.372;2022-11-11T00:04:31;23.47;;;19.70;;
15340;SDS011;7770;52.158;5.372;2022-11-11T00:07:16;27.20;;;20.43;;
15340;SDS011;7770;52.158;5.372;2022-11-11T00:10:03;23.53;;;20.80;;
15340;SDS011;7770;52.158;5.372;2022-11-11T00:12:49;30.90;;;20.43;;
15340;SDS011;7770;52.158;5.372;2022-11-11T00:15:36;27.53;;;21.27;;
15340;SDS011;7770;52.158;5.372;2022-11-11T00:18:23;26.83;;;21.57;;
15340;SDS011;7770;52.158;5.372;2022-11-11T00:21:28;27.13;;;21.93;;
15340;SDS011;7770;52.158;5.372;2022-11-11T00:24:26;27.07;;;21.53;;
15340;SDS011;7770;52.158;5.372;2022-11-11T00:27:33;28.83;;;22.70;;
15340;SDS011;7770;52.158;5.372;2022-11-11T00:30:20;28.77;;;22.73;;
15340;SDS011;7770;52.158;5.372;2022-11-11T00:33:05;30.30;;;25.63;;
15340;SDS011;7770;52.158;5.372;2022-11-11T00:35:55;27.47;;;24.47;;
15340;SDS011;7770;52.158;5.372;2022-11-11T00:38:41;30.20;;;25.83;;
15340;SDS011;7770;52.158;5.372;2022-11-11T00:41:30;32.73;;;26.67;;
15340;SDS011;7770;52.158;5.372;2022-11-11T00:44:16;30.83;;;25.80;;
15340;SDS011;7770;52.158;5.372;2022-11-11T00:47:02;34.77;;;26.17;;
15340;SDS011;7770;52.158;5.372;2022-11-11T00:50:09;30.37;;;26.87;;
15340;SDS011;7770;52.158;5.372;2022-11-11T00:53:28;32.90;;;27.60;;
15340;SDS011;7770;52.158;5.372;2022-11-11T00:56:17;31.80;;;27.57;;
15340;SDS011;7770;52.158;5.372;2022-11-11T00:59:04;33.60;;;28.07;;
15340;SDS011;7770;52.158;5.372;2022-11-11T01:01:51;36.23;;;29.13;;
15340;SDS011;7770;52.158;5.372;2022-11-11T01:04:37;32.90;;;28.70;;
15340;SDS011;7770;52.158;5.372;2022-11-11T01:07:23;35.40;;;28.23;;
15340;SDS011;7770;52.158;5.372;2022-11-11T01:10:09;34.37;;;29.67;;
15340;SDS011;7770;52.158;5.372;2022-11-11T01:12:56;32.40;;;28.13;;
15340;SDS011;7770;52.158;5.372;2022-11-11T01:16:00;32.93;;;28.50;;
15340;SDS011;7770;52.158;5.372;2022-11-11T01:18:49;32.67;;;28.20;;
15340;SDS011;7770;52.158;5.372;2022-11-11T01:21:37;31.37;;;27.93;;
15340;SDS011;7770;52.158;5.372;2022-11-11T01:24:23;37.17;;;30.73;;
15340;SDS011;7770;52.158;5.372;2022-11-11T01:27:09;32.53;;;28.67;;
15340;SDS011;7770;52.158;5.372;2022-11-11T01:29:55;36.63;;;31.63;;
15340;SDS011;7770;52.158;5.372;2022-11-11T01:32:41;38.37;;;31.17;;
15340;SDS011;7770;52.158;5.372;2022-11-11T01:35:27;38.43;;;32.60;;
15340;SDS011;7770;52.158;5.372;2022-11-11T01:38:13;42.80;;;33.90;;
15340;SDS011;7770;52.158;5.372;2022-11-11T01:40:59;38.40;;;33.60;;
15340;SDS011;7770;52.158;5.372;2022-11-11T01:46:58;40.53;;;34.80;;
15340;SDS011;7770;52.158;5.372;2022-11-11T01:49:51;39.87;;;34.83;;
15340;SDS011;7770;52.158;5.372;2022-11-11T01:52:44;42.20;;;34.80;;
15340;SDS011;7770;52.158;5.372;2022-11-11T01:55:30;43.03;;;35.43;;
15340;SDS011;7770;52.158;5.372;2022-11-11T01:58:17;39.70;;;35.40;;
15340;SDS011;7770;52.158;5.372;2022-11-11T02:01:05;41.30;;;34.23;;
15340;SDS011;7770;52.158;5.372;2022-11-11T02:03:52;39.60;;;35.40;;
15340;SDS011;7770;52.158;5.372;2022-11-11T02:07:00;45.20;;;35.87;;
15340;SDS011;7770;52.158;5.372;2022-11-11T02:09:50;44.27;;;35.43;;
15340;SDS011;7770;52.158;5.372;2022-11-11T02:12:37;42.77;;;36.47;;
15340;SDS011;7770;52.158;5.372;2022-11-11T02:15:41;45.97;;;37.37;;
15340;SDS011;7770;52.158;5.372;2022-11-11T02:18:29;45.83;;;36.13;;
15340;SDS011;7770;52.158;5.372;2022-11-11T02:21:24;42.90;;;37.07;;
15340;SDS011;7770;52.158;5.372;2022-11-11T02:24:20;43.23;;;37.03;;
15340;SDS011;7770;52.158;5.372;2022-11-11T02:27:09;41.97;;;37.40;;
15340;SDS011;7770;52.158;5.372;2022-11-11T02:30:00;45.90;;;37.87;;
15340;SDS011;7770;52.158;5.372;2022-11-11T02:32:50;46.77;;;37.53;;
15340;SDS011;7770;52.158;5.372;2022-11-11T02:35:40;44.60;;;37.80;;
15340;SDS011;7770;52.158;5.372;2022-11-11T02:38:42;44.80;;;37.00;;
15340;SDS011;7770;52.158;5.372;2022-11-11T02:41:28;44.43;;;35.77;;
15340;SDS011;7770;52.158;5.372;2022-11-11T02:44:33;43.57;;;36.53;;
15340;SDS011;7770;52.158;5.372;2022-11-11T02:47:21;45.03;;;35.87;;
15340;SDS011;7770;52.158;5.372;2022-11-11T02:50:07;44.10;;;36.30;;
15340;SDS011;7770;52.158;5.372;2022-11-11T02:52:54;42.57;;;36.63;;
15340;SDS011;7770;52.158;5.372;2022-11-11T02:55:40;45.63;;;36.07;;
15340;SDS011;7770;52.158;5.372;2022-11-11T02:58:26;46.87;;;36.37;;
15340;SDS011;7770;52.158;5.372;2022-11-11T03:01:12;42.63;;;36.83;;
15340;SDS011;7770;52.158;5.372;2022-11-11T03:04:04;46.37;;;35.90;;
15340;SDS011;7770;52.158;5.372;2022-11-11T03:06:50;44.90;;;37.00;;
15340;SDS011;7770;52.158;5.372;2022-11-11T03:09:36;44.27;;;38.60;;
15340;SDS011;7770;52.158;5.372;2022-11-11T03:12:22;45.87;;;37.50;;
15340;SDS011;7770;52.158;5.372;2022-11-11T03:15:08;46.17;;;37.53;;
15340;SDS011;7770;52.158;5.372;2022-11-11T03:17:55;44.30;;;37.70;;
15340;SDS011;7770;52.158;5.372;2022-11-11T03:20:41;45.33;;;36.17;;
15340;SDS011;7770;52.158;5.372;2022-11-11T03:23:45;47.13;;;39.43;;
15340;SDS011;7770;52.158;5.372;2022-11-11T03:26:31;45.43;;;37.40;;
15340;SDS011;7770;52.158;5.372;2022-11-11T03:29:17;49.30;;;38.37;;
15340;SDS011;7770;52.158;5.372;2022-11-11T03:32:04;46.83;;;38.13;;
15340;SDS011;7770;52.158;5.372;2022-11-11T03:34:51;44.57;;;37.77;;
15340;SDS011;7770;52.158;5.372;2022-11-11T03:37:37;43.43;;;36.40;;
15340;SDS011;7770;52.158;5.372;2022-11-11T03:40:42;42.70;;;36.27;;
15340;SDS011;7770;52.158;5.372;2022-11-11T03:43:31;46.33;;;37.30;;
15340;SDS011;7770;52.158;5.372;2022-11-11T03:46:19;44.97;;;36.03;;
15340;SDS011;7770;52.158;5.372;2022-11-11T03:49:05;45.93;;;38.10;;
15340;SDS011;7770;52.158;5.372;2022-11-11T03:51:51;46.23;;;36.50;;
15340;SDS011;7770;52.158;5.372;2022-11-11T03:54:37;43.93;;;36.70;;
15340;SDS011;7770;52.158;5.372;2022-11-11T03:57:23;43.97;;;36.33;;
15340;SDS011;7770;52.158;5.372;2022-11-11T04:00:16;42.87;;;34.77;;
15340;SDS011;7770;52.158;5.372;2022-11-11T04:03:14;43.70;;;35.93;;
15340;SDS011;7770;52.158;5.372;2022-11-11T04:06:21;42.97;;;34.50;;
15340;SDS011;7770;52.158;5.372;2022-11-11T04:09:26;42.73;;;34.77;;
15340;SDS011;7770;52.158;5.372;2022-11-11T04:12:30;42.97;;;34.10;;
15340;SDS011;7770;52.158;5.372;2022-11-11T04:15:37;42.70;;;35.20;;
15340;SDS011;7770;52.158;5.372;2022-11-11T04:18:42;43.30;;;33.90;;
15340;SDS011;7770;52.158;5.372;2022-11-11T04:21:46;45.97;;;33.33;;
15340;SDS011;7770;52.158;5.372;2022-11-11T04:24:33;39.17;;;32.23;;
15340;SDS011;7770;52.158;5.372;2022-11-11T04:27:38;41.43;;;32.80;;
15340;SDS011;7770;52.158;5.372;2022-11-11T04:30:24;46.33;;;33.13;;
15340;SDS011;7770;52.158;5.372;2022-11-11T04:33:10;41.07;;;31.67;;
15340;SDS011;7770;52.158;5.372;2022-11-11T04:35:56;38.40;;;32.70;;
15340;SDS011;7770;52.158;5.372;2022-11-11T04:38:42;39.83;;;31.23;;
15340;SDS011;7770;52.158;5.372;2022-11-11T04:41:46;37.57;;;31.93;;
15340;SDS011;7770;52.158;5.372;2022-11-11T04:44:32;40.43;;;32.53;;
15340;SDS011;7770;52.158;5.372;2022-11-11T04:47:37;38.83;;;30.97;;
15340;SDS011;7770;52.158;5.372;2022-11-11T04:50:24;38.07;;;31.27;;
15340;SDS011;7770;52.158;5.372;2022-11-11T04:53:13;38.47;;;32.23;;
15340;SDS011;7770;52.158;5.372;2022-11-11T04:56:00;40.47;;;33.30;;
15340;SDS011;7770;52.158;5.372;2022-11-11T04:59:05;39.77;;;32.10;;
15340;SDS011;7770;52.158;5.372;2022-11-11T05:02:11;37.90;;;31.40;;
15340;SDS011;7770;52.158;5.372;2022-11-11T05:05:15;44.50;;;32.93;;
15340;SDS011;7770;52.158;5.372;2022-11-11T05:08:01;39.90;;;31.47;;
15340;SDS011;7770;52.158;5.372;2022-11-11T05:11:05;42.47;;;31.97;;
15340;SDS011;7770;52.158;5.372;2022-11-11T05:13:52;37.23;;;30.80;;
15340;SDS011;7770;52.158;5.372;2022-11-11T05:16:59;38.80;;;30.57;;
15340;SDS011;7770;52.158;5.372;2022-11-11T05:20:03;35.77;;;29.83;;
15340;SDS011;7770;52.158;5.372;2022-11-11T05:23:08;38.73;;;30.93;;
15340;SDS011;7770;52.158;5.372;2022-11-11T05:25:54;40.07;;;30.63;;
15340;SDS011;7770;52.158;5.372;2022-11-11T05:28:40;35.53;;;29.70;;
15340;SDS011;7770;52.158;5.372;2022-11-11T05:31:27;37.30;;;29.87;;
15340;SDS011;7770;52.158;5.372;2022-11-11T05:34:14;34.70;;;28.50;;
15340;SDS011;7770;52.158;5.372;2022-11-11T05:37:00;37.13;;;29.67;;
15340;SDS011;7770;52.158;5.372;2022-11-11T05:39:46;36.40;;;30.23;;
15340;SDS011;7770;52.158;5.372;2022-11-11T05:42:32;34.73;;;28.87;;
15340;SDS011;7770;52.158;5.372;2022-11-11T05:45:18;34.73;;;29.70;;
15340;SDS011;7770;52.158;5.372;2022-11-11T05:48:04;39.33;;;28.77;;
15340;SDS011;7770;52.158;5.372;2022-11-11T05:50:50;36.07;;;28.97;;
15340;SDS011;7770;52.158;5.372;2022-11-11T05:53:36;37.20;;;28.77;;
15340;SDS011;7770;52.158;5.372;2022-11-11T05:56:22;34.97;;;28.50;;
15340;SDS011;7770;52.158;5.372;2022-11-11T05:59:09;35.43;;;28.93;;
15340;SDS011;7770;52.158;5.372;2022-11-11T06:01:55;36.67;;;27.90;;
15340;SDS011;7770;52.158;5.372;2022-11-11T06:04:41;34.20;;;28.37;;
15340;SDS011;7770;52.158;5.372;2022-11-11T06:07:27;35.40;;;29.97;;
15340;SDS011;7770;52.158;5.372;2022-11-11T06:10:13;38.37;;;29.37;;
15340;SDS011;7770;52.158;5.372;2022-11-11T06:13:14;35.07;;;27.50;;
15340;SDS011;7770;52.158;5.372;2022-11-11T06:16:01;36.00;;;29.30;;
15340;SDS011;7770;52.158;5.372;2022-11-11T06:18:48;35.20;;;29.67;;
15340;SDS011;7770;52.158;5.372;2022-11-11T06:21:35;38.47;;;28.97;;
15340;SDS011;7770;52.158;5.372;2022-11-11T06:24:41;36.87;;;29.17;;
15340;SDS011;7770;52.158;5.372;2022-11-11T06:27:27;36.93;;;29.90;;
15340;SDS011;7770;52.158;5.372;2022-11-11T06:30:13;44.03;;;30.00;;
15340;SDS011;7770;52.158;5.372;2022-11-11T06:32:59;33.97;;;28.53;;
15340;SDS011;7770;52.158;5.372;2022-11-11T06:35:46;37.43;;;29.33;;
15340;SDS011;7770;52.158;5.372;2022-11-11T06:38:32;38.47;;;30.73;;
15340;SDS011;7770;52.158;5.372;2022-11-11T06:41:18;38.00;;;31.23;;
15340;SDS011;7770;52.158;5.372;2022-11-11T06:44:05;33.57;;;29.63;;
15340;SDS011;7770;52.158;5.372;2022-11-11T06:46:51;34.87;;;29.80;;
15340;SDS011;7770;52.158;5.372;2022-11-11T06:49:37;35.83;;;29.10;;
15340;SDS011;7770;52.158;5.372;2022-11-11T06:52:23;34.00;;;30.13;;
15340;SDS011;7770;52.158;5.372;2022-11-11T06:55:09;33.53;;;28.50;;
15340;SDS011;7770;52.158;5.372;2022-11-11T06:58:00;36.93;;;30.70;;
15340;SDS011;7770;52.158;5.372;2022-11-11T07:00:53;34.03;;;30.13;;
15340;SDS011;7770;52.158;5.372;2022-11-11T07:03:39;36.17;;;31.03;;
15340;SDS011;7770;52.158;5.372;2022-11-11T07:06:25;39.47;;;30.63;;
15340;SDS011;7770;52.158;5.372;2022-11-11T07:09:11;35.20;;;30.10;;
15340;SDS011;7770;52.158;5.372;2022-11-11T07:11:57;34.90;;;31.10;;
15340;SDS011;7770;52.158;5.372;2022-11-11T07:14:44;35.17;;;30.63;;
15340;SDS011;7770;52.158;5.372;2022-11-11T07:17:30;35.20;;;30.80;;
15340;SDS011;7770;52.158;5.372;2022-11-11T07:20:16;37.60;;;30.57;;
15340;SDS011;7770;52.158;5.372;2022-11-11T07:23:02;37.20;;;31.10;;
15340;SDS011;7770;52.158;5.372;2022-11-11T07:25:49;36.17;;;30.23;;
15340;SDS011;7770;52.158;5.372;2022-11-11T07:28:35;39.03;;;29.67;;
15340;SDS011;7770;52.158;5.372;2022-11-11T07:31:21;35.37;;;29.90;;
15340;SDS011;7770;52.158;5.372;2022-11-11T07:34:07;35.63;;;29.90;;
15340;SDS011;7770;52.158;5.372;2022-11-11T07:36:53;37.30;;;31.13;;
15340;SDS011;7770;52.158;5.372;2022-11-11T07:39:39;36.30;;;31.23;;
15340;SDS011;7770;52.158;5.372;2022-11-11T07:42:25;35.53;;;30.17;;
15340;SDS011;7770;52.158;5.372;2022-11-11T07:45:12;39.07;;;30.67;;
15340;SDS011;7770;52.158;5.372;2022-11-11T07:47:58;33.63;;;29.40;;
15340;SDS011;7770;52.158;5.372;2022-11-11T07:50:44;35.57;;;28.83;;
15340;SDS011;7770;52.158;5.372;2022-11-11T07:53:30;35.03;;;29.20;;
15340;SDS011;7770;52.158;5.372;2022-11-11T07:56:16;32.47;;;28.73;;
15340;SDS011;7770;52.158;5.372;2022-11-11T07:59:02;37.60;;;28.77;;
15340;SDS011;7770;52.158;5.372;2022-11-11T08:01:48;35.60;;;28.73;;
15340;SDS011;7770;52.158;5.372;2022-11-11T08:04:34;33.53;;;28.43;;
15340;SDS011;7770;52.158;5.372;2022-11-11T08:07:20;33.63;;;27.97;;
15340;SDS011;7770;52.158;5.372;2022-11-11T08:10:08;33.97;;;27.73;;
15340;SDS011;7770;52.158;5.372;2022-11-11T08:12:55;36.00;;;28.13;;
15340;SDS011;7770;52.158;5.372;2022-11-11T08:16:00;38.50;;;28.90;;
15340;SDS011;7770;52.158;5.372;2022-11-11T08:18:48;31.57;;;27.93;;
15340;SDS011;7770;52.158;5.372;2022-11-11T08:21:34;33.07;;;28.73;;
15340;SDS011;7770;52.158;5.372;2022-11-11T08:24:20;33.83;;;28.20;;
15340;SDS011;7770;52.158;5.372;2022-11-11T08:27:07;35.20;;;27.70;;
15340;SDS011;7770;52.158;5.372;2022-11-11T08:29:54;32.20;;;27.17;;
15340;SDS011;7770;52.158;5.372;2022-11-11T08:32:40;35.00;;;27.07;;
15340;SDS011;7770;52.158;5.372;2022-11-11T08:35:26;33.70;;;27.40;;
15340;SDS011;7770;52.158;5.372;2022-11-11T08:38:12;36.10;;;28.60;;
15340;SDS011;7770;52.158;5.372;2022-11-11T08:41:02;37.03;;;27.40;;
15340;SDS011;7770;52.158;5.372;2022-11-11T08:43:51;33.73;;;28.30;;
15340;SDS011;7770;52.158;5.372;2022-11-11T08:46:41;33.63;;;26.20;;
15340;SDS011;7770;52.158;5.372;2022-11-11T08:49:27;31.97;;;26.70;;
15340;SDS011;7770;52.158;5.372;2022-11-11T08:52:13;31.90;;;26.97;;
15340;SDS011;7770;52.158;5.372;2022-11-11T08:55:00;33.77;;;26.07;;
15340;SDS011;7770;52.158;5.372;2022-11-11T08:57:46;29.87;;;26.63;;
15340;SDS011;7770;52.158;5.372;2022-11-11T09:00:32;31.63;;;25.60;;
15340;SDS011;7770;52.158;5.372;2022-11-11T09:03:18;28.40;;;24.43;;
15340;SDS011;7770;52.158;5.372;2022-11-11T09:06:04;32.37;;;25.93;;
15340;SDS011;7770;52.158;5.372;2022-11-11T09:08:50;29.83;;;26.23;;
15340;SDS011;7770;52.158;5.372;2022-11-11T09:11:36;29.23;;;24.53;;
15340;SDS011;7770;52.158;5.372;2022-11-11T09:14:22;29.80;;;24.73;;
15340;SDS011;7770;52.158;5.372;2022-11-11T09:17:09;28.53;;;24.37;;
15340;SDS011;7770;52.158;5.372;2022-11-11T09:19:55;35.00;;;24.97;;
15340;SDS011;7770;52.158;5.372;2022-11-11T09:22:45;32.67;;;24.43;;
15340;SDS011;7770;52.158;5.372;2022-11-11T09:25:32;31.40;;;25.03;;
15340;SDS011;7770;52.158;5.372;2022-11-11T09:28:18;28.33;;;25.07;;
15340;SDS011;7770;52.158;5.372;2022-11-11T09:31:04;31.57;;;25.10;;
15340;SDS011;7770;52.158;5.372;2022-11-11T09:33:50;27.10;;;24.20;;
15340;SDS011;7770;52.158;5.372;2022-11-11T09:36:37;28.37;;;24.20;;
15340;SDS011;7770;52.158;5.372;2022-11-11T09:39:23;31.27;;;25.17;;
15340;SDS011;7770;52.158;5.372;2022-11-11T09:42:15;28.97;;;25.03;;
15340;SDS011;7770;52.158;5.372;2022-11-11T09:45:38;27.10;;;23.90;;
15340;SDS011;7770;52.158;5.372;2022-11-11T09:52:44;28.23;;;23.40;;
15340;SDS011;7770;52.158;5.372;2022-11-11T09:55:47;27.90;;;24.97;;
15340;SDS011;7770;52.158;5.372;2022-11-11T09:58:40;26.77;;;23.23;;
15340;SDS011;7770;52.158;5.372;2022-11-11T10:01:43;28.27;;;24.40;;
15340;SDS011;7770;52.158;5.372;2022-11-11T10:04:40;29.20;;;24.43;;
15340;SDS011;7770;52.158;5.372;2022-11-11T10:07:45;27.60;;;23.97;;
15340;SDS011;7770;52.158;5.372;2022-11-11T10:13:35;28.30;;;24.77;;
15340;SDS011;7770;52.158;5.372;2022-11-11T10:16:27;27.73;;;24.47;;
15340;SDS011;7770;52.158;5.372;2022-11-11T10:22:58;26.47;;;23.87;;
15340;SDS011;7770;52.158;5.372;2022-11-11T10:25:53;25.83;;;23.23;;
15340;SDS011;7770;52.158;5.372;2022-11-11T10:28:42;26.43;;;23.63;;
15340;SDS011;7770;52.158;5.372;2022-11-11T10:31:31;26.50;;;23.77;;
15340;SDS011;7770;52.158;5.372;2022-11-11T10:34:19;25.67;;;23.00;;
15340;SDS011;7770;52.158;5.372;2022-11-11T10:37:14;25.80;;;23.10;;
15340;SDS011;7770;52.158;5.372;2022-11-11T10:43:26;24.53;;;22.03;;
15340;SDS011;7770;52.158;5.372;2022-11-11T10:49:15;21.87;;;19.67;;
15340;SDS011;7770;52.158;5.372;2022-11-11T10:52:13;22.90;;;20.70;;
15340;SDS011;7770;52.158;5.372;2022-11-11T10:58:08;23.30;;;21.10;;
15340;SDS011;7770;52.158;5.372;2022-11-11T11:01:13;24.27;;;21.87;;
15340;SDS011;7770;52.158;5.372;2022-11-11T11:04:14;23.70;;;21.33;;
15340;SDS011;7770;52.158;5.372;2022-11-11T11:10:42;23.90;;;21.67;;
15340;SDS011;7770;52.158;5.372;2022-11-11T11:13:42;23.27;;;20.97;;
15340;SDS011;7770;52.158;5.372;2022-11-11T11:16:35;23.53;;;21.13;;
15340;SDS011;7770;52.158;5.372;2022-11-11T11:19:28;22.30;;;20.00;;
15340;SDS011;7770;52.158;5.372;2022-11-11T11:22:14;21.60;;;19.47;;
15340;SDS011;7770;52.158;5.372;2022-11-11T11:25:08;21.47;;;19.30;;
15340;SDS011;7770;52.158;5.372;2022-11-11T11:28:09;22.57;;;18.97;;
15340;SDS011;7770;52.158;5.372;2022-11-11T11:30:59;20.17;;;18.20;;
15340;SDS011;7770;52.158;5.372;2022-11-11T11:33:50;19.73;;;17.93;;
15340;SDS011;7770;52.158;5.372;2022-11-11T11:36:38;20.13;;;18.13;;
15340;SDS011;7770;52.158;5.372;2022-11-11T11:39:34;20.13;;;18.23;;
15340;SDS011;7770;52.158;5.372;2022-11-11T11:42:38;19.87;;;17.77;;
15340;SDS011;7770;52.158;5.372;2022-11-11T11:51:42;18.87;;;17.00;;
15340;SDS011;7770;52.158;5.372;2022-11-11T11:55:18;18.73;;;16.70;;
15340;SDS011;7770;52.158;5.372;2022-11-11T11:58:22;18.20;;;16.30;;
15340;SDS011;7770;52.158;5.372;2022-11-11T12:04:50;18.00;;;16.23;;
15340;SDS011;7770;52.158;5.372;2022-11-11T12:08:14;19.17;;;17.20;;
15340;SDS011;7770;52.158;5.372;2022-11-11T12:17:41;21.30;;;17.07;;
15340;SDS011;7770;52.158;5.372;2022-11-11T12:20:44;19.60;;;17.60;;
15340;SDS011;7770;52.158;5.372;2022-11-11T12:28:04;19.67;;;17.73;;
15340;SDS011;7770;52.158;5.372;2022-11-11T12:31:27;19.77;;;17.87;;
15340;SDS011;7770;52.158;5.372;2022-11-11T12:34:38;19.37;;;17.23;;
15340;SDS011;7770;52.158;5.372;2022-11-11T12:41:04;22.33;;;17.33;;
15340;SDS011;7770;52.158;5.372;2022-11-11T12:44:06;18.47;;;16.53;;
15340;SDS011;7770;52.158;5.372;2022-11-11T12:53:25;17.90;;;16.07;;
15340;SDS011;7770;52.158;5.372;2022-11-11T12:56:32;18.27;;;15.43;;
15340;SDS011;7770;52.158;5.372;2022-11-11T12:59:48;18.80;;;16.80;;
15340;SDS011;7770;52.158;5.372;2022-11-11T13:16:09;17.63;;;15.83;;
15340;SDS011;7770;52.158;5.372;2022-11-11T13:19:15;22.23;;;17.00;;
15340;SDS011;7770;52.158;5.372;2022-11-11T13:22:24;17.93;;;16.03;;
15340;SDS011;7770;52.158;5.372;2022-11-11T13:25:19;17.30;;;15.50;;
15340;SDS011;7770;52.158;5.372;2022-11-11T13:28:29;17.97;;;15.63;;
15340;SDS011;7770;52.158;5.372;2022-11-11T13:31:35;17.97;;;16.03;;
15340;SDS011;7770;52.158;5.372;2022-11-11T13:34:24;18.70;;;16.63;;
15340;SDS011;7770;52.158;5.372;2022-11-11T13:37:24;17.77;;;15.83;;
15340;SDS011;7770;52.158;5.372;2022-11-11T13:40:26;18.33;;;16.53;;
15340;SDS011;7770;52.158;5.372;2022-11-11T13:43:28;19.17;;;16.40;;
15340;SDS011;7770;52.158;5.372;2022-11-11T13:49:20;19.67;;;17.67;;
15340;SDS011;7770;52.158;5.372;2022-11-11T13:52:19;19.63;;;17.63;;
15340;SDS011;7770;52.158;5.372;2022-11-11T13:55:22;20.73;;;17.87;;
15340;SDS011;7770;52.158;5.372;2022-11-11T13:58:31;20.17;;;18.07;;
15340;SDS011;7770;52.158;5.372;2022-11-11T14:01:21;20.10;;;17.03;;
15340;SDS011;7770;52.158;5.372;2022-11-11T14:04:09;19.33;;;17.37;;
15340;SDS011;7770;52.158;5.372;2022-11-11T14:06:56;19.43;;;17.30;;
15340;SDS011;7770;52.158;5.372;2022-11-11T14:09:58;18.53;;;16.53;;
15340;SDS011;7770;52.158;5.372;2022-11-11T14:12:48;18.87;;;15.67;;
15340;SDS011;7770;52.158;5.372;2022-11-11T14:18:35;17.90;;;16.00;;
15340;SDS011;7770;52.158;5.372;2022-11-11T14:24:35;17.90;;;15.97;;
15340;SDS011;7770;52.158;5.372;2022-11-11T14:27:25;18.20;;;16.27;;
15340;SDS011;7770;52.158;5.372;2022-11-11T14:30:32;16.77;;;14.73;;
15340;SDS011;7770;52.158;5.372;2022-11-11T14:36:41;16.80;;;15.00;;
15340;SDS011;7770;52.158;5.372;2022-11-11T14:51:37;15.43;;;13.07;;
15340;SDS011;7770;52.158;5.372;2022-11-11T14:54:46;16.13;;;13.60;;
15340;SDS011;7770;52.158;5.372;2022-11-11T15:06:34;14.23;;;12.73;;
15340;SDS011;7770;52.158;5.372;2022-11-11T15:09:43;17.03;;;13.43;;
15340;SDS011;7770;52.158;5.372;2022-11-11T15:18:51;18.17;;;13.93;;
15340;SDS011;7770;52.158;5.372;2022-11-11T15:25:10;13.50;;;12.00;;
15340;SDS011;7770;52.158;5.372;2022-11-11T15:28:18;15.27;;;12.60;;
15340;SDS011;7770;52.158;5.372;2022-11-11T15:37:51;17.13;;;12.77;;
15340;SDS011;7770;52.158;5.372;2022-11-11T15:40:44;14.87;;;12.53;;
15340;SDS011;7770;52.158;5.372;2022-11-11T15:43:35;16.43;;;12.00;;
15340;SDS011;7770;52.158;5.372;2022-11-11T15:46:30;14.17;;;11.70;;
15340;SDS011;7770;52.158;5.372;2022-11-11T15:49:41;17.87;;;12.97;;
15340;SDS011;7770;52.158;5.372;2022-11-11T15:52:33;14.47;;;12.97;;
15340;SDS011;7770;52.158;5.372;2022-11-11T15:55:22;16.70;;;13.03;;
15340;SDS011;7770;52.158;5.372;2022-11-11T15:58:15;17.47;;;12.33;;
15340;SDS011;7770;52.158;5.372;2022-11-11T16:01:09;14.90;;;13.30;;
15340;SDS011;7770;52.158;5.372;2022-11-11T16:03:56;17.40;;;13.50;;
15340;SDS011;7770;52.158;5.372;2022-11-11T16:06:42;16.80;;;13.27;;
15340;SDS011;7770;52.158;5.372;2022-11-11T16:09:30;16.33;;;13.80;;
15340;SDS011;7770;52.158;5.372;2022-11-11T16:12:24;19.97;;;14.03;;
15340;SDS011;7770;52.158;5.372;2022-11-11T16:15:59;17.53;;;13.90;;
15340;SDS011;7770;52.158;5.372;2022-11-11T16:18:33;15.83;;;14.10;;
15340;SDS011;7770;52.158;5.372;2022-11-11T16:21:44;19.63;;;15.00;;
15340;SDS011;7770;52.158;5.372;2022-11-11T16:24:56;16.67;;;14.97;;
15340;SDS011;7770;52.158;5.372;2022-11-11T16:27:43;19.37;;;15.93;;
15340;SDS011;7770;52.158;5.372;2022-11-11T16:30:31;19.20;;;16.03;;
15340;SDS011;7770;52.158;5.372;2022-11-11T16:36:12;17.63;;;14.83;;
15340;SDS011;7770;52.158;5.372;2022-11-11T16:39:18;17.87;;;14.33;;
15340;SDS011;7770;52.158;5.372;2022-11-11T16:45:17;15.30;;;12.93;;
15340;SDS011;7770;52.158;5.372;2022-11-11T16:48:31;13.97;;;12.30;;
15340;SDS011;7770;52.158;5.372;2022-11-11T16:51:20;14.97;;;12.67;;
15340;SDS011;7770;52.158;5.372;2022-11-11T16:54:23;18.33;;;14.23;;
15340;SDS011;7770;52.158;5.372;2022-11-11T16:57:18;13.83;;;12.30;;
15340;SDS011;7770;52.158;5.372;2022-11-11T17:00:18;14.83;;;13.23;;
15340;SDS011;7770;52.158;5.372;2022-11-11T17:06:05;16.67;;;14.43;;
15340;SDS011;7770;52.158;5.372;2022-11-11T17:08:53;18.37;;;16.53;;
15340;SDS011;7770;52.158;5.372;2022-11-11T17:14:26;21.67;;;17.73;;
15340;SDS011;7770;52.158;5.372;2022-11-11T17:17:14;16.40;;;13.17;;
15340;SDS011;7770;52.158;5.372;2022-11-11T17:20:02;18.73;;;13.77;;
15340;SDS011;7770;52.158;5.372;2022-11-11T17:23:00;15.27;;;13.63;;
15340;SDS011;7770;52.158;5.372;2022-11-11T17:25:54;15.80;;;12.50;;
15340;SDS011;7770;52.158;5.372;2022-11-11T17:28:41;16.50;;;12.50;;
15340;SDS011;7770;52.158;5.372;2022-11-11T17:31:27;15.20;;;12.77;;
15340;SDS011;7770;52.158;5.372;2022-11-11T17:34:14;16.13;;;13.27;;
15340;SDS011;7770;52.158;5.372;2022-11-11T17:37:00;15.87;;;13.57;;
15340;SDS011;7770;52.158;5.372;2022-11-11T17:39:46;16.83;;;13.80;;
15340;SDS011;7770;52.158;5.372;2022-11-11T17:42:32;18.97;;;16.50;;
15340;SDS011;7770;52.158;5.372;2022-11-11T17:45:19;23.20;;;15.00;;
15340;SDS011;7770;52.158;5.372;2022-11-11T17:48:05;17.10;;;14.80;;
15340;SDS011;7770;52.158;5.372;2022-11-11T17:50:52;16.37;;;13.77;;
15340;SDS011;7770;52.158;5.372;2022-11-11T17:53:38;14.60;;;13.10;;
15340;SDS011;7770;52.158;5.372;2022-11-11T17:56:24;14.57;;;12.50;;
15340;SDS011;7770;52.158;5.372;2022-11-11T17:59:13;13.73;;;12.33;;
15340;SDS011;7770;52.158;5.372;2022-11-11T18:01:59;15.83;;;13.73;;
15340;SDS011;7770;52.158;5.372;2022-11-11T18:04:47;18.67;;;13.00;;
15340;SDS011;7770;52.158;5.372;2022-11-11T18:07:33;13.37;;;11.33;;
15340;SDS011;7770;52.158;5.372;2022-11-11T18:10:19;14.67;;;13.17;;
15340;SDS011;7770;52.158;5.372;2022-11-11T18:13:05;16.70;;;13.13;;
15340;SDS011;7770;52.158;5.372;2022-11-11T18:15:51;17.47;;;15.63;;
15340;SDS011;7770;52.158;5.372;2022-11-11T18:18:38;19.73;;;15.63;;
15340;SDS011;7770;52.158;5.372;2022-11-11T18:21:26;25.33;;;18.70;;
15340;SDS011;7770;52.158;5.372;2022-11-11T18:24:13;31.17;;;21.47;;
15340;SDS011;7770;52.158;5.372;2022-11-11T18:26:59;27.00;;;19.37;;
15340;SDS011;7770;52.158;5.372;2022-11-11T18:29:45;28.33;;;19.13;;
15340;SDS011;7770;52.158;5.372;2022-11-11T18:32:31;24.53;;;16.33;;
15340;SDS011;7770;52.158;5.372;2022-11-11T18:35:17;24.80;;;18.53;;
15340;SDS011;7770;52.158;5.372;2022-11-11T18:38:03;17.07;;;15.10;;
15340;SDS011;7770;52.158;5.372;2022-11-11T18:40:49;16.53;;;14.67;;
15340;SDS011;7770;52.158;5.372;2022-11-11T18:43:36;16.53;;;14.10;;
15340;SDS011;7770;52.158;5.372;2022-11-11T18:46:30;15.13;;;13.53;;
15340;SDS011;7770;52.158;5.372;2022-11-11T18:49:16;16.07;;;14.03;;
15340;SDS011;7770;52.158;5.372;2022-11-11T18:52:02;19.83;;;15.90;;
15340;SDS011;7770;52.158;5.372;2022-11-11T18:54:48;20.23;;;15.40;;
15340;SDS011;7770;52.158;5.372;2022-11-11T18:57:34;16.90;;;14.50;;
15340;SDS011;7770;52.158;5.372;2022-11-11T19:00:20;20.13;;;15.80;;
15340;SDS011;7770;52.158;5.372;2022-11-11T19:03:06;17.53;;;15.63;;
15340;SDS011;7770;52.158;5.372;2022-11-11T19:05:52;17.57;;;15.77;;
15340;SDS011;7770;52.158;5.372;2022-11-11T19:08:44;18.77;;;14.17;;
15340;SDS011;7770;52.158;5.372;2022-11-11T19:11:31;18.43;;;15.30;;